Terminal Aerodrome Forecast
Issued by NWS

Home | Current Version | Previous Version | Text Only | Print | Product List | Glossary On
Versions: 1 2 3 4 5 6 7 8 9 10 11 12 13 14 15 16 17
000
FTAK31 PAJN 262328
TAFAYA
TAF
PAYA 262328Z 2700/2724 09005KT P6SM BKN090
     FM271400 08004KT P6SM -RASN OVC050
     FM271900 08005KT 5SM -RASN OVC025
      AMD LTD TO CLD VIS AND WIND 2701/2709=

USA.gov is the U.S. government's official web portal to all federal, state and local government web resources and services.